KBDLKSNC

Guest
Details From KBDL - Bradley Intl
To KSNC - CHESTER
Flight Number -
Tags generated
Created
Modified
Stats Distance 34 nm / 64 km
Max Altitude 2,100 ft / 640 m
Waypoints 3
Social Downloads 0
Likes 0
Share VATSIM

Download

Looking for another format? Having issues loading an existing format? Contact us
Advertisement - Login to hide

Notes

Basic altitude profile: - Ascent Rate: 2500ft/min - Ascent Speed: 100kts - Cruise Altitude: 2000ft - Cruise Speed: 125kts - Descent Rate: 1500ft/min - Descent Speed: 75kts Options: - Use NATs: yes - Use PACOTS: yes - Use low airways: yes - Use high airways: no

Route

KBDL WEGOT KSNC

ID Type Via Altitude Latitude Longitude Leg Dist Tot Dist Heading (true) Name
O KBDL APT - 0 ft / 0 m 41.93892˚ -72.68279˚ - 0 nm - Bradley Intl
WEGOT FIX - 2,100 ft / 640 m 41.54038˚ -72.59228˚ 24 nm 24 nm 170° / 170° -
O KSNC APT - 0 ft / 0 m 41.38381˚ -72.50635˚ 10 nm 34 nm 158° / 158° CHESTER

Altitude Profile

Advertisement - Login to hide

KBDL

Details ICAO KBDL (BDL)
Name Bradley Intl
Region United States
Timezone America/New_York (UTC-5.0)
Stats Elevation 172 ft / 52 m (AMSL)
Location 41.938916° -72.682790°
Runways 3
Magnetic Variation 13.837° W

METAR

KBDL 132051Z 28020G33KT 10SM FEW035 FEW048 M04/M13 A2948 RMK AO2 PK WND 28033/2042 SLP985 T10441128 53023

Decode

TAF

TAF AMD KBDL 132114Z 1321/1424 28020G30KT P6SM FEW035 FM140000 26009KT P6SM BKN110 FM140900 24005KT P6SM VCSH OVC035 FM141400 31007KT P6SM BKN040 FM141600 32010KT P6SM SCT080 FM142100 30012G22KT P6SM SKC

Decode

Departure Runways

ID Width Length Bearing (true) Bearing (mag) Surface Threshold Offset Overrun Length
01 100 ft / 30 m 4,273 ft / 1,302 m 359.04° 12.88° Asphalt 479 ft / 146 m 0 ft / 0 m
06 200 ft / 61 m 9,505 ft / 2,897 m 44.27° 58.11° Asphalt 0 ft / 0 m 243 ft / 74 m
15 150 ft / 46 m 6,843 ft / 2,086 m 134.48° 148.32° Asphalt 0 ft / 0 m 997 ft / 304 m
19 100 ft / 30 m 4,273 ft / 1,302 m 179.04° 192.88° Asphalt 0 ft / 0 m 0 ft / 0 m
24 200 ft / 61 m 9,505 ft / 2,897 m 224.29° 238.13° Asphalt 0 ft / 0 m 988 ft / 301 m
33 150 ft / 46 m 6,843 ft / 2,086 m 314.49° 328.33° Asphalt 0 ft / 0 m 95 ft / 29 m

KSNC

Details ICAO KSNC
Name CHESTER
Region United States
Timezone America/New_York (UTC-5.0)
Stats Elevation 416 ft / 127 m (AMSL)
Location 41.383812° -72.506348°
Runways 1
Magnetic Variation 13.779° W

METAR

KSNC 132115Z AUTO 29010G17KT 10SM CLR M04/M14 A2949 RMK AO2

Decode

TAF

Not found

Destination Runways

ID Width Length Bearing (true) Bearing (mag) Surface Threshold Offset Overrun Length
17 50 ft / 15 m 2,569 ft / 783 m 160.92° 174.70° Asphalt 559 ft / 170 m 0 ft / 0 m
35 50 ft / 15 m 2,569 ft / 783 m 340.92° 354.70° Asphalt 0 ft / 0 m 0 ft / 0 m

Popular Alternatives